Terminal Aerodrome Forecast
Issued by NWS Shreveport, LA

Current Version | Previous Version | Text Only | Print | Product List | Glossary On
Versions: 1 2 3 4 5 6 7 8 9 10 11 12 13 14 15 16
724
FTUS44 KSHV 191720
TAFELD
TAF
KELD 191720Z 1918/2018 35008KT P6SM FEW300
     FM192200 34005KT P6SM SCT300
     FM200000 00000KT P6SM SCT300
     FM201500 14004KT P6SM BKN280=

USA.gov is the U.S. government's official web portal to all federal, state and local government web resources and services.